Time;durP1;ratioP1;P1;durP2;ratioP2;P2;SDS_P1;SDS_P2;PMS_P1;PMS_P2;Temp;Humidity;BMP_temperature;BMP_pressure;BME280_temperature;BME280_humidity;BME280_pressure;Samples;Min_cycle;Max_cycle;Signal;HPM_P1;HPM_P2
2023/10/14 00:00:49;;;;;;;0.60;0.60;;;9.50;99.90;;;;;;5030135;28;20193;-78
2023/10/14 00:03:27;;;;;;;0.60;0.60;;;9.50;99.90;;;;;;5029772;28;20569;-77
2023/10/14 00:06:09;;;;;;;0.60;0.60;;;9.50;99.90;;;;;;5028581;28;20222;-77
2023/10/14 00:08:47;;;;;;;0.70;0.70;;;9.50;99.90;;;;;;5029614;28;20680;-77
2023/10/14 00:11:16;;;;;;;0.60;0.60;;;9.50;99.90;;;;;;5029237;28;20277;-78
2023/10/14 00:13:43;;;;;;;1.02;1.02;;;9.50;99.90;;;;;;5029323;28;20208;-77
2023/10/14 00:18:50;;;;;;;0.70;0.70;;;9.50;99.90;;;;;;5029784;28;20216;-76
2023/10/14 00:21:16;;;;;;;3.45;2.22;;;9.50;99.90;;;;;;5029365;28;20194;-77
2023/10/14 00:23:42;;;;;;;0.65;0.65;;;9.50;99.90;;;;;;5029339;28;20198;-76
2023/10/14 00:26:15;;;;;;;0.60;0.60;;;9.50;99.90;;;;;;5029916;28;20676;-77
2023/10/14 00:28:45;;;;;;;0.60;0.60;;;9.50;99.90;;;;;;5011282;28;20208;-77
2023/10/14 00:31:16;;;;;;;0.60;0.60;;;9.40;99.90;;;;;;5029205;28;20207;-77
2023/10/14 00:33:45;;;;;;;0.68;0.68;;;9.40;99.90;;;;;;5029077;28;20741;-75
2023/10/14 00:36:13;;;;;;;0.52;0.52;;;9.40;99.90;;;;;;5029361;28;20281;-75
2023/10/14 00:38:45;;;;;;;1.45;1.35;;;9.40;99.90;;;;;;5029067;28;20210;-77
2023/10/14 00:41:12;;;;;;;0.60;0.60;;;9.40;99.90;;;;;;5029222;28;20614;-76
2023/10/14 00:43:40;;;;;;;0.60;0.60;;;9.30;99.90;;;;;;5029378;28;20229;-77
2023/10/14 00:46:14;;;;;;;0.60;0.60;;;9.30;99.90;;;;;;5029023;28;20202;-77
2023/10/14 00:48:46;;;;;;;0.70;0.70;;;9.30;99.90;;;;;;5011028;28;20204;-77
2023/10/14 00:51:16;;;;;;;0.50;0.50;;;9.30;99.90;;;;;;5029217;28;20725;-77
2023/10/14 00:56:42;;;;;;;0.63;0.63;;;9.10;99.90;;;;;;5019930;28;20214;-77
2023/10/14 00:59:18;;;;;;;0.50;0.50;;;9.00;99.90;;;;;;5011450;28;20724;-77
2023/10/14 01:02:29;;;;;;;0.70;0.70;;;8.90;99.90;;;;;;5011069;28;20205;-77
2023/10/14 01:04:36;;;;;;;0.60;0.60;;;8.80;99.90;;;;;;5022942;28;20233;-77
2023/10/14 01:15:00;;;;;;;0.70;0.70;;;8.50;99.90;;;;;;5029474;28;20197;-76
2023/10/14 01:17:29;;;;;;;0.60;0.60;;;8.50;99.90;;;;;;5028616;28;20220;-77
2023/10/14 01:20:00;;;;;;;2.05;1.33;;;8.40;99.90;;;;;;5010526;28;20271;-76
2023/10/14 01:22:27;;;;;;;0.60;0.60;;;8.30;99.90;;;;;;5028599;28;20193;-76
2023/10/14 01:24:55;;;;;;;9.38;3.13;;;8.20;99.90;;;;;;5013577;28;20190;-75
2023/10/14 01:27:28;;;;;;;0.70;0.70;;;8.20;99.90;;;;;;5032140;28;20747;-76
2023/10/14 01:29:54;;;;;;;0.70;0.70;;;8.20;99.90;;;;;;5013901;28;20608;-75
2023/10/14 01:37:59;;;;;;;0.68;0.68;;;7.90;99.90;;;;;;5032707;28;20244;-76
2023/10/14 01:40:35;;;;;;;0.50;0.50;;;7.80;99.90;;;;;;5014064;28;20221;-76
2023/10/14 01:43:05;;;;;;;0.70;0.70;;;7.70;99.90;;;;;;5031993;28;20197;-77
2023/10/14 01:48:30;;;;;;;0.60;0.60;;;7.40;99.90;;;;;;5032383;28;20225;-77
2023/10/14 01:50:58;;;;;;;0.60;0.60;;;7.20;99.90;;;;;;5014316;28;20338;-77
2023/10/14 01:53:32;;;;;;;0.60;0.60;;;7.20;99.90;;;;;;5013465;28;20685;-76
2023/10/14 01:56:00;;;;;;;0.65;0.65;;;7.10;99.90;;;;;;5031942;28;20199;-77
2023/10/14 01:58:29;;;;;;;0.70;0.70;;;7.00;99.90;;;;;;5013642;28;20272;-77
2023/10/14 02:01:15;;;;;;;1.20;1.17;;;6.90;99.90;;;;;;5031855;28;20574;-77
2023/10/14 02:04:02;;;;;;;0.68;0.68;;;6.80;99.90;;;;;;5013773;28;20287;-77
2023/10/14 02:06:30;;;;;;;0.60;0.60;;;6.80;99.90;;;;;;5031613;28;20731;-77
2023/10/14 02:09:04;;;;;;;0.70;0.70;;;6.80;99.90;;;;;;5013800;28;20519;-77
2023/10/14 02:11:33;;;;;;;0.60;0.60;;;6.80;99.90;;;;;;5013427;28;20221;-77
2023/10/14 02:14:06;;;;;;;0.65;0.65;;;6.70;99.90;;;;;;5031399;28;20640;-77
2023/10/14 02:16:44;;;;;;;0.70;0.70;;;6.70;99.90;;;;;;5031570;28;20198;-76
2023/10/14 02:21:48;;;;;;;0.60;0.60;;;6.60;99.90;;;;;;5031739;28;20209;-78
2023/10/14 02:24:15;;;;;;;0.60;0.60;;;6.40;99.90;;;;;;5031308;28;20197;-78
2023/10/14 02:26:40;;;;;;;0.70;0.70;;;6.40;99.90;;;;;;5031249;28;20560;-78
2023/10/14 02:29:08;;;;;;;0.60;0.60;;;6.30;99.90;;;;;;5013664;28;20206;-78
2023/10/14 02:31:36;;;;;;;0.57;0.57;;;6.20;99.90;;;;;;5031099;28;20194;-79
2023/10/14 02:34:05;;;;;;;0.70;0.70;;;6.10;99.90;;;;;;5031176;28;20212;-78
2023/10/14 02:36:35;;;;;;;0.65;0.65;;;6.00;99.90;;;;;;5030458;28;20209;-79
2023/10/14 02:39:16;;;;;;;0.70;0.70;;;5.90;99.90;;;;;;5013324;28;20216;-78
2023/10/14 02:41:44;;;;;;;0.60;0.60;;;5.90;99.90;;;;;;5030651;28;20666;-77
2023/10/14 02:46:42;;;;;;;0.57;0.57;;;6.20;99.90;;;;;;5030467;28;20564;-79
2023/10/14 02:49:15;;;;;;;0.70;0.70;;;6.20;99.90;;;;;;5013081;28;20232;-78
2023/10/14 02:51:44;;;;;;;0.70;0.70;;;6.00;99.90;;;;;;5012847;28;20689;-78
2023/10/14 02:54:15;;;;;;;0.68;0.68;;;6.00;99.90;;;;;;5030884;28;20222;-79
2023/10/14 02:57:13;;;;;;;0.75;0.75;;;5.90;99.90;;;;;;5028953;28;20578;-78
2023/10/14 02:59:43;;;;;;;0.60;0.60;;;5.90;99.90;;;;;;5029866;28;20225;-78
2023/10/14 03:02:14;;;;;;;0.60;0.60;;;5.90;99.90;;;;;;5029712;28;20753;-79
2023/10/14 03:07:23;;;;;;;0.65;0.65;;;6.00;99.90;;;;;;5030411;28;20198;-79
2023/10/14 03:09:50;;;;;;;0.70;0.70;;;6.00;99.90;;;;;;5012617;28;20205;-79
2023/10/14 03:12:18;;;;;;;0.63;0.63;;;6.00;99.90;;;;;;5030539;28;20198;-79
2023/10/14 03:14:54;;;;;;;0.68;0.68;;;6.10;99.90;;;;;;5030188;28;20194;-79
2023/10/14 03:17:25;;;;;;;0.60;0.60;;;6.10;99.90;;;;;;5012174;28;20201;-78
2023/10/14 03:19:54;;;;;;;0.70;0.70;;;6.00;99.90;;;;;;5029977;28;20209;-79
2023/10/14 03:22:27;;;;;;;0.60;0.60;;;6.00;99.90;;;;;;5030277;28;20237;-78
2023/10/14 03:25:09;;;;;;;0.50;0.50;;;6.00;99.90;;;;;;5030082;28;20689;-77
2023/10/14 03:27:39;;;;;;;0.68;0.68;;;6.00;99.90;;;;;;5028367;28;20567;-79
2023/10/14 03:30:06;;;;;;;0.70;0.70;;;5.90;99.90;;;;;;5030257;28;20258;-79
2023/10/14 03:32:34;;;;;;;0.60;0.60;;;5.80;99.90;;;;;;5029476;28;20206;-77
2023/10/14 03:35:12;;;;;;;1.40;1.30;;;5.80;99.90;;;;;;5029827;28;20205;-77
2023/10/14 03:37:40;;;;;;;0.57;0.57;;;6.00;99.90;;;;;;5029703;28;20197;-77
2023/10/14 03:42:53;;;;;;;0.40;0.40;;;6.10;99.90;;;;;;5029850;28;20209;-76
2023/10/14 03:45:22;;;;;;;0.57;0.57;;;6.00;99.90;;;;;;5011627;28;20970;-77
2023/10/14 03:48:00;;;;;;;0.77;0.77;;;5.90;99.90;;;;;;5011682;28;20198;-75
2023/10/14 03:50:28;;;;;;;0.57;0.57;;;5.80;99.90;;;;;;5011230;28;20209;-78
2023/10/14 03:52:54;;;;;;;0.68;0.68;;;5.70;99.90;;;;;;5029048;28;20202;-79
2023/10/14 03:55:24;;;;;;;0.60;0.60;;;5.50;99.90;;;;;;5011017;28;20275;-78
2023/10/14 03:57:52;;;;;;;0.80;0.80;;;5.40;99.90;;;;;;5029140;28;20752;-78
2023/10/14 04:00:39;;;;;;;0.80;0.80;;;5.30;99.90;;;;;;5028759;28;20206;-79
2023/10/14 04:03:12;;;;;;;0.80;0.80;;;5.20;99.90;;;;;;5029016;28;20228;-79
2023/10/14 04:05:44;;;;;;;0.70;0.70;;;5.10;99.90;;;;;;5029049;28;20251;-78
2023/10/14 04:08:09;;;;;;;0.77;0.77;;;5.00;99.90;;;;;;5011124;28;20233;-79
2023/10/14 04:10:43;;;;;;;0.65;0.65;;;4.90;99.90;;;;;;5028796;28;20233;-79
2023/10/14 04:13:13;;;;;;;0.70;0.70;;;4.90;99.90;;;;;;5028725;28;20544;-80
2023/10/14 04:15:53;;;;;;;0.80;0.80;;;4.80;99.90;;;;;;5028785;28;20193;-81
2023/10/14 04:18:28;;;;;;;0.60;0.60;;;4.70;99.90;;;;;;5011357;28;20298;-79
2023/10/14 04:21:13;;;;;;;0.80;0.80;;;4.70;99.90;;;;;;5028693;28;20649;-80
2023/10/14 04:24:08;;;;;;;0.70;0.70;;;4.70;99.90;;;;;;5028706;28;20190;-79
2023/10/14 04:26:35;;;;;;;0.60;0.60;;;4.70;99.90;;;;;;5028629;28;20273;-80
2023/10/14 04:29:03;;;;;;;0.73;0.73;;;4.60;99.90;;;;;;5028973;28;20201;-80
2023/10/14 04:31:40;;;;;;;0.77;0.77;;;4.60;99.90;;;;;;5028857;28;20201;-78
2023/10/14 04:34:10;;;;;;;0.80;0.80;;;4.50;99.90;;;;;;5008812;28;20202;-78
2023/10/14 04:36:36;;;;;;;0.68;0.68;;;4.50;99.90;;;;;;5028962;28;20661;-82
2023/10/14 04:39:26;;;;;;;0.70;0.70;;;4.50;99.90;;;;;;5010962;28;20725;-78
2023/10/14 04:44:44;;;;;;;0.73;0.73;;;4.40;99.90;;;;;;5028848;28;20680;-78
2023/10/14 04:47:19;;;;;;;0.50;0.50;;;4.40;99.90;;;;;;5029042;28;20721;-81
2023/10/14 04:49:57;;;;;;;1.58;1.48;;;4.40;99.90;;;;;;5029057;28;20231;-78
2023/10/14 04:52:26;;;;;;;0.60;0.60;;;4.30;99.90;;;;;;5011114;28;20240;-79
2023/10/14 04:54:54;;;;;;;0.60;0.60;;;4.30;99.90;;;;;;5028730;28;20288;-80
2023/10/14 04:57:22;;;;;;;0.52;0.52;;;4.30;99.90;;;;;;5028699;28;20245;-78
2023/10/14 04:59:55;;;;;;;0.70;0.70;;;4.20;99.90;;;;;;5014075;28;20218;-79
2023/10/14 05:02:21;;;;;;;0.70;0.70;;;4.10;99.90;;;;;;5031390;28;20317;-79
2023/10/14 05:04:49;;;;;;;0.63;0.63;;;4.10;99.90;;;;;;5014995;28;20574;-79
2023/10/14 05:07:15;;;;;;;0.70;0.70;;;4.10;99.90;;;;;;5032662;28;20178;-79
2023/10/14 05:09:42;;;;;;;0.60;0.60;;;4.10;99.90;;;;;;5032769;28;20657;-76
2023/10/14 05:12:09;;;;;;;0.80;0.80;;;4.00;99.90;;;;;;5032260;28;20281;-75
2023/10/14 05:14:38;;;;;;;0.70;0.70;;;4.00;99.90;;;;;;5014094;28;20202;-75
2023/10/14 05:19:42;;;;;;;0.40;0.40;;;4.10;99.90;;;;;;5031830;28;20828;-76
2023/10/14 05:22:23;;;;;;;0.70;0.70;;;4.10;99.90;;;;;;5014618;28;20201;-76
2023/10/14 05:24:52;;;;;;;0.57;0.57;;;4.20;99.90;;;;;;5014241;28;20202;-76
2023/10/14 05:27:19;;;;;;;0.60;0.60;;;4.20;99.90;;;;;;5031949;28;20653;-76
2023/10/14 05:29:50;;;;;;;0.60;0.60;;;4.30;99.90;;;;;;5032143;28;20190;-76
2023/10/14 05:32:18;;;;;;;0.60;0.60;;;4.40;99.90;;;;;;5032010;28;20676;-76
2023/10/14 05:34:45;;;;;;;0.60;0.60;;;4.60;99.90;;;;;;5013970;28;20200;-76
2023/10/14 05:37:16;;;;;;;2.38;1.95;;;4.60;99.90;;;;;;5032121;28;20202;-76
2023/10/14 05:39:42;;;;;;;0.60;0.60;;;4.50;99.90;;;;;;5013687;28;20681;-77
2023/10/14 05:42:16;;;;;;;0.70;0.70;;;4.50;99.90;;;;;;5032131;28;20252;-76
2023/10/14 05:44:49;;;;;;;0.40;0.40;;;4.50;99.90;;;;;;5014092;28;20256;-76
2023/10/14 05:47:16;;;;;;;0.60;0.60;;;4.70;99.90;;;;;;5031872;28;20200;-77
2023/10/14 05:49:43;;;;;;;0.60;0.60;;;4.80;99.90;;;;;;5032140;28;20673;-76
2023/10/14 05:52:09;;;;;;;0.60;0.60;;;4.80;99.90;;;;;;5014026;28;20272;-77
2023/10/14 05:54:35;;;;;;;0.68;0.68;;;4.90;99.90;;;;;;5031213;28;20269;-77
2023/10/14 05:57:02;;;;;;;0.70;0.70;;;5.00;99.90;;;;;;5032043;28;20225;-76
2023/10/14 05:59:29;;;;;;;2.72;1.65;;;5.30;99.90;;;;;;5031106;28;20206;-75
2023/10/14 06:01:54;;;;;;;0.65;0.65;;;5.30;99.90;;;;;;5029898;28;20677;-77
2023/10/14 06:04:20;;;;;;;0.70;0.70;;;5.40;99.90;;;;;;5031463;28;20197;-77
2023/10/14 06:06:46;;;;;;;0.50;0.50;;;5.30;99.90;;;;;;5031242;28;20277;-77
2023/10/14 06:09:16;;;;;;;0.70;0.70;;;5.20;99.90;;;;;;5030671;28;20281;-77
2023/10/14 06:11:42;;;;;;;0.60;0.60;;;5.10;99.90;;;;;;5030579;28;20284;-76
2023/10/14 06:14:11;;;;;;;0.57;0.57;;;5.00;99.90;;;;;;5031075;28;20263;-77
2023/10/14 06:16:37;;;;;;;0.70;0.70;;;5.00;99.90;;;;;;5031088;28;20199;-77
2023/10/14 06:19:04;;;;;;;0.60;0.60;;;5.00;99.90;;;;;;5031112;28;20198;-77
2023/10/14 06:21:33;;;;;;;0.50;0.50;;;5.00;99.90;;;;;;5013489;28;20206;-78
2023/10/14 06:24:00;;;;;;;0.50;0.50;;;5.00;99.90;;;;;;5030782;28;20777;-77
2023/10/14 06:26:26;;;;;;;0.50;0.50;;;5.10;99.90;;;;;;5010569;28;20237;-76
2023/10/14 06:28:56;;;;;;;0.68;0.68;;;5.20;99.90;;;;;;5011708;28;20210;-77
2023/10/14 06:31:22;;;;;;;0.70;0.70;;;5.30;99.90;;;;;;5017948;28;20277;-80
2023/10/14 06:33:48;;;;;;;0.60;0.60;;;5.30;99.90;;;;;;5012845;28;20351;-77
2023/10/14 06:36:19;;;;;;;0.50;0.50;;;5.30;99.90;;;;;;5030646;28;20621;-78
2023/10/14 06:38:44;;;;;;;0.60;0.60;;;5.30;99.90;;;;;;5030362;28;20704;-80
2023/10/14 06:41:12;;;;;;;0.60;0.60;;;5.50;99.90;;;;;;5031125;28;20198;-79
2023/10/14 06:43:43;;;;;;;0.50;0.50;;;5.60;99.90;;;;;;5030439;28;20613;-79
2023/10/14 06:46:11;;;;;;;1.63;1.30;;;5.70;99.90;;;;;;5030504;28;20252;-80
2023/10/14 06:48:38;;;;;;;0.60;0.60;;;5.90;99.90;;;;;;5012549;28;20197;-80
2023/10/14 06:51:06;;;;;;;0.70;0.70;;;6.10;99.90;;;;;;5030870;28;20194;-81
2023/10/14 06:53:31;;;;;;;0.70;0.70;;;6.30;99.90;;;;;;5029862;28;20612;-80
2023/10/14 06:56:01;;;;;;;0.70;0.70;;;6.50;99.90;;;;;;5030318;28;20197;-78
2023/10/14 06:58:32;;;;;;;0.80;0.80;;;6.60;99.90;;;;;;5030230;28;20618;-79
2023/10/14 07:00:58;;;;;;;0.55;0.55;;;6.90;99.90;;;;;;5030666;28;20200;-80
2023/10/14 07:03:28;;;;;;;0.60;0.60;;;7.00;99.90;;;;;;5012718;28;20221;-79
2023/10/14 07:05:57;;;;;;;0.70;0.70;;;7.10;99.90;;;;;;5030188;28;20191;-80
2023/10/14 07:08:29;;;;;;;0.50;0.50;;;7.10;99.90;;;;;;5029931;28;20264;-80
2023/10/14 07:10:56;;;;;;;0.60;0.60;;;7.30;99.90;;;;;;5012879;28;20237;-79
2023/10/14 07:13:31;;;;;;;0.80;0.80;;;7.40;99.90;;;;;;5029778;28;20202;-79
2023/10/14 07:16:05;;;;;;;0.60;0.60;;;7.40;99.90;;;;;;5030296;28;20197;-81
2023/10/14 07:18:38;;;;;;;0.60;0.60;;;7.40;99.90;;;;;;5012405;28;20198;-81
2023/10/14 07:21:12;;;;;;;0.60;0.60;;;7.40;99.90;;;;;;5029795;28;20194;-81
2023/10/14 07:23:45;;;;;;;0.60;0.60;;;7.50;99.90;;;;;;5012982;28;20219;-81
2023/10/14 07:26:13;;;;;;;0.70;0.70;;;7.60;99.90;;;;;;5029660;28;20201;-83
2023/10/14 07:28:42;;;;;;;0.57;0.57;;;7.80;99.90;;;;;;5029662;28;20730;-82
2023/10/14 07:31:12;;;;;;;0.70;0.70;;;7.80;99.90;;;;;;5028807;28;20202;-83
2023/10/14 07:34:50;;;;;;;;;;;;;;;;;;;;;
2023/10/14 07:37:36;;;;;;;0.60;0.60;;;8.20;99.90;;;;;;5017710;28;20226;-81
2023/10/14 08:09:47;;;;;;;0.60;0.60;;;9.60;99.90;;;;;;4652002;30;20211;-77
2023/10/14 08:16:02;;;;;;;0.57;0.57;;;9.70;99.90;;;;;;4662234;30;20265;-71
2023/10/14 08:18:27;;;;;;;0.60;0.60;;;9.80;99.90;;;;;;4703730;30;20334;-76
2023/10/14 08:20:54;;;;;;;0.60;0.60;;;9.80;99.90;;;;;;4797913;29;20693;-77
2023/10/14 08:23:29;;;;;;;0.60;0.60;;;9.90;99.90;;;;;;4802122;29;20611;-76
2023/10/14 08:25:56;;;;;;;0.60;0.60;;;10.00;99.90;;;;;;4817625;29;20268;-77
2023/10/14 08:28:27;;;;;;;0.60;0.60;;;10.20;99.90;;;;;;4837120;29;20268;-76
2023/10/14 08:30:57;;;;;;;0.60;0.60;;;10.30;99.90;;;;;;4910392;29;21096;-77
2023/10/14 08:33:24;;;;;;;0.60;0.60;;;10.40;99.90;;;;;;4895568;29;20230;-78
2023/10/14 08:35:51;;;;;;;1.02;1.02;;;10.30;99.90;;;;;;4914499;29;20709;-78
2023/10/14 08:38:22;;;;;;;0.50;0.50;;;10.40;99.90;;;;;;4918557;28;20198;-79
2023/10/14 08:40:52;;;;;;;0.60;0.60;;;10.40;99.90;;;;;;4974418;28;20215;-76
2023/10/14 08:43:30;;;;;;;0.60;0.60;;;10.60;99.90;;;;;;4972503;28;20227;-77
2023/10/14 08:45:59;;;;;;;0.60;0.60;;;10.70;99.90;;;;;;4972797;28;20199;-78
2023/10/14 08:48:27;;;;;;;0.60;0.60;;;10.80;99.90;;;;;;4972339;28;20207;-70
2023/10/14 08:50:57;;;;;;;0.60;0.60;;;11.00;99.90;;;;;;4973156;28;20295;-78
2023/10/14 08:53:24;;;;;;;0.60;0.60;;;10.90;99.90;;;;;;4979709;28;20199;-82
2023/10/14 08:55:55;;;;;;;0.60;0.60;;;10.90;99.90;;;;;;5032276;28;20210;-80
2023/10/14 08:58:22;;;;;;;0.60;0.60;;;10.90;99.90;;;;;;5032818;28;20223;-82
2023/10/14 09:00:50;;;;;;;0.60;0.60;;;10.90;99.90;;;;;;5032348;28;20256;-81
2023/10/14 09:03:16;;;;;;;0.60;0.60;;;11.00;99.90;;;;;;5031094;28;20194;-79
2023/10/14 09:05:45;;;;;;;0.70;0.70;;;11.10;99.90;;;;;;5032038;28;20186;-80
2023/10/14 09:08:21;;;;;;;0.60;0.60;;;11.30;99.90;;;;;;5032261;28;20221;-80
2023/10/14 09:10:49;;;;;;;0.70;0.70;;;11.30;99.90;;;;;;5032056;28;20607;-77
2023/10/14 09:13:24;;;;;;;0.60;0.60;;;11.20;99.90;;;;;;5028511;28;20202;-78
2023/10/14 09:15:51;;;;;;;0.50;0.50;;;11.10;99.90;;;;;;4994935;28;20623;-80
2023/10/14 09:18:29;;;;;;;0.70;0.70;;;11.00;99.90;;;;;;5013034;28;20570;-81
2023/10/14 09:20:59;;;;;;;0.57;0.57;;;11.00;99.90;;;;;;5025532;28;20210;-79
2023/10/14 09:23:32;;;;;;;0.60;0.60;;;10.90;99.90;;;;;;5031985;28;20276;-79
2023/10/14 09:26:00;;;;;;;0.60;0.60;;;11.00;99.90;;;;;;5014297;28;20198;-78
2023/10/14 09:28:34;;;;;;;0.60;0.60;;;10.90;99.90;;;;;;5013940;28;20194;-79
2023/10/14 09:31:02;;;;;;;0.60;0.60;;;11.10;99.90;;;;;;5013853;28;20251;-79
2023/10/14 09:33:33;;;;;;;0.50;0.50;;;11.40;99.90;;;;;;5031674;28;20190;-80
2023/10/14 09:36:05;;;;;;;0.60;0.60;;;11.80;99.90;;;;;;5013858;28;20194;-78
2023/10/14 09:38:32;;;;;;;0.60;0.60;;;12.00;99.90;;;;;;5028658;28;20675;-79
2023/10/14 09:41:05;;;;;;;0.60;0.60;;;12.10;99.90;;;;;;5011727;28;20213;-80
2023/10/14 09:43:39;;;;;;;0.50;0.50;;;12.20;99.90;;;;;;5011917;28;20206;-77
2023/10/14 09:46:09;;;;;;;1.35;1.15;;;12.10;99.90;;;;;;4993570;28;20214;-79
2023/10/14 09:48:39;;;;;;;0.60;0.60;;;11.80;99.90;;;;;;4994025;28;20209;-79
2023/10/14 09:51:11;;;;;;;0.60;0.60;;;11.90;99.90;;;;;;5018954;28;20207;-81
2023/10/14 09:53:38;;;;;;;0.50;0.50;;;11.80;99.90;;;;;;5030785;28;20248;-80
2023/10/14 09:56:10;;;;;;;0.60;0.60;;;11.80;99.90;;;;;;5031404;28;20233;-79
2023/10/14 09:58:43;;;;;;;0.60;0.60;;;11.70;99.90;;;;;;5031213;28;20202;-80
2023/10/14 10:01:16;;;;;;;0.50;0.50;;;11.60;99.90;;;;;;5031503;28;20193;-77
2023/10/14 10:04:00;;;;;;;0.60;0.60;;;11.70;99.90;;;;;;5031186;28;20202;-77
2023/10/14 10:06:48;;;;;;;1.77;1.67;;;11.90;99.90;;;;;;5031113;28;20190;-77
2023/10/14 10:09:47;;;;;;;0.60;0.60;;;11.90;99.90;;;;;;5030171;28;20293;-77
2023/10/14 10:12:17;;;;;;;0.60;0.60;;;11.90;99.90;;;;;;5031599;28;20733;-77
2023/10/14 10:14:44;;;;;;;0.50;0.50;;;11.90;99.90;;;;;;5031259;28;20202;-77
2023/10/14 10:17:13;;;;;;;0.50;0.50;;;11.80;99.90;;;;;;5031394;28;20202;-76
2023/10/14 10:20:08;;;;;;;1.05;0.95;;;11.90;99.90;;;;;;5031230;28;20300;-77
2023/10/14 10:23:01;;;;;;;0.60;0.60;;;12.20;99.90;;;;;;5031235;28;20251;-77
2023/10/14 10:25:36;;;;;;;0.50;0.50;;;12.40;99.90;;;;;;5009278;28;20728;-76
2023/10/14 10:28:26;;;;;;;2.28;1.42;;;12.50;99.90;;;;;;4993738;28;20413;-76
2023/10/14 10:31:14;;;;;;;0.50;0.50;;;12.80;99.90;;;;;;5010995;28;20195;-76
2023/10/14 10:33:45;;;;;;;0.75;0.75;;;13.00;99.90;;;;;;5011226;28;21256;-76
2023/10/14 10:36:13;;;;;;;0.50;0.50;;;12.90;99.90;;;;;;5008686;28;20752;-77
2023/10/14 10:38:42;;;;;;;0.50;0.50;;;13.10;99.90;;;;;;5017045;28;20206;-78
2023/10/14 10:41:27;;;;;;;0.43;0.43;;;13.40;99.90;;;;;;5035302;28;20202;-79
2023/10/14 10:43:58;;;;;;;0.60;0.60;;;13.50;99.90;;;;;;5034735;28;20201;-76
2023/10/14 10:46:50;;;;;;;0.50;0.50;;;13.70;99.90;;;;;;5035572;28;20280;-77
2023/10/14 10:49:50;;;;;;;0.75;0.75;;;13.90;99.90;;;;;;5034543;28;20244;-76
2023/10/14 10:52:16;;;;;;;0.50;0.50;;;14.00;99.90;;;;;;5011463;28;20222;-76
2023/10/14 10:54:44;;;;;;;0.50;0.50;;;14.20;99.90;;;;;;5008278;28;20722;-77
2023/10/14 10:57:13;;;;;;;0.50;0.50;;;14.10;99.90;;;;;;5014125;28;20199;-77
2023/10/14 10:59:41;;;;;;;0.47;0.47;;;14.30;99.90;;;;;;5013279;28;20214;-77
2023/10/14 11:02:12;;;;;;;0.65;0.65;;;13.80;99.90;;;;;;5015957;28;20670;-76
2023/10/14 11:04:45;;;;;;;0.65;0.65;;;13.10;99.90;;;;;;5013949;28;20206;-78
2023/10/14 11:07:11;;;;;;;0.50;0.50;;;12.80;99.90;;;;;;4998183;28;20204;-78
2023/10/14 11:09:49;;;;;;;0.57;0.57;;;12.50;99.90;;;;;;4994354;28;20199;-78
2023/10/14 11:12:18;;;;;;;0.50;0.50;;;12.40;99.90;;;;;;5000767;28;20290;-76
2023/10/14 11:14:58;;;;;;;0.60;0.60;;;12.30;99.90;;;;;;5013409;28;20237;-77
2023/10/14 11:17:34;;;;;;;0.50;0.50;;;11.90;99.90;;;;;;5012561;28;20659;-76
2023/10/14 11:20:00;;;;;;;0.60;0.60;;;11.70;99.90;;;;;;5013323;28;20288;-76
2023/10/14 11:22:26;;;;;;;0.60;0.60;;;11.50;99.90;;;;;;5025138;28;20662;-77
2023/10/14 11:24:55;;;;;;;0.47;0.47;;;11.60;99.90;;;;;;5008699;28;20663;-76
2023/10/14 11:27:21;;;;;;;0.90;0.88;;;11.30;99.90;;;;;;5009699;28;20241;-76
2023/10/14 11:29:46;;;;;;;0.85;0.85;;;11.40;99.90;;;;;;5009886;28;20706;-78
2023/10/14 11:32:12;;;;;;;0.50;0.50;;;11.30;99.90;;;;;;5009239;28;20685;-77
2023/10/14 11:34:41;;;;;;;0.60;0.60;;;11.20;99.90;;;;;;5010758;28;20221;-78
2023/10/14 11:37:10;;;;;;;0.60;0.60;;;11.10;99.90;;;;;;5008694;28;20619;-78
2023/10/14 11:39:36;;;;;;;1.30;1.20;;;11.10;99.90;;;;;;5008723;28;20753;-78
2023/10/14 11:42:03;;;;;;;0.60;0.60;;;11.20;99.90;;;;;;5010414;28;20199;-78
2023/10/14 11:44:28;;;;;;;0.55;0.55;;;11.10;99.90;;;;;;5009576;28;20658;-77
2023/10/14 11:47:04;;;;;;;0.60;0.60;;;11.00;99.90;;;;;;5008649;28;20202;-76
2023/10/14 11:49:30;;;;;;;0.60;0.60;;;11.00;99.90;;;;;;5008577;28;20214;-77
2023/10/14 11:51:58;;;;;;;0.60;0.60;;;11.30;99.90;;;;;;5024624;28;20566;-79
2023/10/14 11:54:25;;;;;;;0.60;0.60;;;11.70;99.90;;;;;;5018373;28;20237;-78
2023/10/14 11:56:51;;;;;;;0.50;0.50;;;12.20;99.90;;;;;;5029243;28;20202;-77
2023/10/14 11:59:17;;;;;;;0.50;0.50;;;12.50;99.90;;;;;;5029231;28;20544;-79
2023/10/14 12:01:46;;;;;;;1.75;1.48;;;12.70;99.90;;;;;;5011410;28;20696;-78
2023/10/14 12:04:11;;;;;;;0.50;0.50;;;12.70;99.90;;;;;;5027829;28;20230;-77
2023/10/14 12:06:37;;;;;;;0.50;0.50;;;12.60;99.90;;;;;;5029292;28;20225;-78
2023/10/14 12:09:06;;;;;;;0.60;0.60;;;12.50;99.90;;;;;;5028285;28;20655;-77
2023/10/14 12:11:41;;;;;;;0.52;0.52;;;12.10;99.90;;;;;;5011507;28;20255;-77
2023/10/14 12:14:11;;;;;;;0.60;0.60;;;11.80;99.90;;;;;;5011336;28;20213;-77
2023/10/14 12:16:40;;;;;;;0.70;0.70;;;11.60;99.90;;;;;;5011374;28;20202;-78
2023/10/14 12:19:05;;;;;;;0.50;0.50;;;11.50;99.90;;;;;;5011373;28;20213;-80
2023/10/14 12:21:31;;;;;;;0.88;0.85;;;11.50;99.90;;;;;;5029421;28;20243;-75
2023/10/14 12:24:02;;;;;;;0.52;0.52;;;11.50;99.90;;;;;;5029361;28;20316;-76
2023/10/14 12:26:30;;;;;;;0.60;0.60;;;11.60;99.90;;;;;;5029221;28;20186;-77
2023/10/14 12:28:56;;;;;;;0.60;0.60;;;11.30;99.90;;;;;;5011457;28;20198;-77
2023/10/14 12:31:24;;;;;;;0.50;0.50;;;11.20;99.90;;;;;;5029194;28;20333;-76
2023/10/14 12:33:50;;;;;;;0.60;0.60;;;11.20;99.90;;;;;;5029589;28;20257;-77
2023/10/14 12:36:17;;;;;;;0.50;0.50;;;11.30;99.90;;;;;;5011329;28;20618;-77
2023/10/14 12:38:43;;;;;;;0.60;0.60;;;11.20;99.90;;;;;;5008908;28;20616;-76
2023/10/14 12:41:09;;;;;;;0.60;0.60;;;11.20;99.90;;;;;;5029029;28;20194;-77
2023/10/14 12:43:50;;;;;;;0.60;0.60;;;11.30;99.90;;;;;;5028732;28;20198;-76
2023/10/14 12:48:45;;;;;;;0.60;0.60;;;11.20;99.90;;;;;;5028688;28;20244;-75
2023/10/14 12:51:30;;;;;;;0.60;0.60;;;11.00;99.90;;;;;;5028963;28;20202;-77
2023/10/14 12:54:00;;;;;;;0.50;0.50;;;11.00;99.90;;;;;;4999593;28;20223;-77
2023/10/14 12:56:26;;;;;;;0.60;0.60;;;11.10;99.90;;;;;;4989416;28;20560;-76
2023/10/14 12:58:57;;;;;;;0.60;0.60;;;11.30;99.90;;;;;;4989344;28;20204;-77
2023/10/14 13:01:25;;;;;;;0.50;0.50;;;11.40;99.90;;;;;;4987946;28;20262;-77
2023/10/14 13:03:56;;;;;;;0.60;0.60;;;11.40;99.90;;;;;;4988355;28;20683;-77
2023/10/14 13:06:29;;;;;;;0.40;0.40;;;11.50;99.90;;;;;;5006117;28;20203;-76
2023/10/14 13:08:59;;;;;;;0.60;0.60;;;11.60;99.90;;;;;;5008901;28;20191;-76
2023/10/14 13:11:31;;;;;;;0.60;0.60;;;11.40;99.90;;;;;;5008664;28;20195;-77
2023/10/14 13:13:58;;;;;;;0.50;0.50;;;11.40;99.90;;;;;;5009009;28;20246;-77
2023/10/14 13:16:31;;;;;;;0.60;0.60;;;11.40;99.90;;;;;;5008633;28;20686;-77
2023/10/14 13:18:57;;;;;;;0.60;0.60;;;11.50;99.90;;;;;;5009057;28;20195;-76
2023/10/14 13:21:31;;;;;;;0.60;0.60;;;11.40;99.90;;;;;;5012034;28;20213;-75
2023/10/14 13:24:04;;;;;;;0.60;0.60;;;11.30;99.90;;;;;;5012257;28;20198;-78
2023/10/14 13:26:30;;;;;;;0.57;0.57;;;11.30;99.90;;;;;;5013022;28;20685;-78
2023/10/14 13:28:56;;;;;;;0.60;0.60;;;11.30;99.90;;;;;;5012442;28;20191;-78
2023/10/14 13:31:24;;;;;;;0.60;0.60;;;11.30;99.90;;;;;;5012623;28;20545;-77
2023/10/14 13:33:52;;;;;;;0.57;0.57;;;11.30;99.90;;;;;;5012514;28;20202;-78
2023/10/14 13:36:20;;;;;;;0.50;0.50;;;11.40;99.90;;;;;;5010849;28;20235;-77
2023/10/14 13:38:47;;;;;;;0.60;0.60;;;11.30;99.90;;;;;;5006728;28;20209;-78
2023/10/14 13:41:14;;;;;;;0.60;0.60;;;11.40;99.90;;;;;;4992644;28;20191;-77
2023/10/14 13:43:50;;;;;;;0.50;0.50;;;11.30;99.90;;;;;;4992639;28;20198;-77
2023/10/14 13:46:17;;;;;;;0.60;0.60;;;11.30;99.90;;;;;;4992556;28;20226;-77
2023/10/14 13:48:56;;;;;;;0.80;0.80;;;11.30;99.90;;;;;;4992760;28;20278;-77
2023/10/14 13:51:23;;;;;;;0.60;0.60;;;11.20;99.90;;;;;;4992419;28;20231;-76
2023/10/14 13:53:48;;;;;;;0.60;0.60;;;11.10;99.90;;;;;;4994726;28;20215;-78
2023/10/14 13:56:14;;;;;;;0.60;0.60;;;11.00;99.90;;;;;;5026988;28;20210;-79
2023/10/14 13:58:40;;;;;;;0.60;0.60;;;10.80;99.90;;;;;;5012186;28;20272;-78
2023/10/14 14:01:17;;;;;;;0.55;0.55;;;10.80;99.90;;;;;;5011606;28;20701;-77
2023/10/14 14:04:00;;;;;;;0.60;0.60;;;10.80;99.90;;;;;;5012121;28;20639;-78
2023/10/14 14:06:29;;;;;;;0.52;0.52;;;10.80;99.90;;;;;;5011676;28;20585;-77
2023/10/14 14:08:56;;;;;;;0.50;0.50;;;10.80;99.90;;;;;;5011507;28;20209;-77
2023/10/14 14:11:23;;;;;;;0.95;0.95;;;10.90;99.90;;;;;;5010514;28;20199;-78
2023/10/14 14:13:52;;;;;;;0.60;0.60;;;10.80;99.90;;;;;;5010075;28;20198;-78
2023/10/14 14:16:18;;;;;;;0.50;0.50;;;10.80;99.90;;;;;;5011404;28;20198;-77
2023/10/14 14:18:50;;;;;;;0.60;0.60;;;10.80;99.90;;;;;;5013088;28;20320;-77
2023/10/14 14:21:20;;;;;;;0.60;0.60;;;10.70;99.90;;;;;;5011120;28;20674;-77
2023/10/14 14:23:47;;;;;;;0.60;0.60;;;10.70;99.90;;;;;;5010771;28;20732;-77
2023/10/14 14:26:30;;;;;;;0.60;0.60;;;10.60;99.90;;;;;;5011267;28;20301;-78